Time;durP1;ratioP1;P1;durP2;ratioP2;P2;SDS_P1;SDS_P2;PMS_P1;PMS_P2;Temp;Humidity;BMP_temperature;BMP_pressure;BME280_temperature;BME280_humidity;BME280_pressure;Samples;Min_cycle;Max_cycle;Signal;HPM_P1;HPM_P2
2022/08/16 00:01:08;;;;;;;10.10;6.43;;;;;;;18.75;73.49;100473.88;5027620;28;20037;-65
2022/08/16 00:03:33;;;;;;;9.90;6.90;;;;;;;18.72;73.92;100479.72;5031448;28;20021;-65
2022/08/16 00:05:58;;;;;;;9.60;6.60;;;;;;;18.68;73.41;100475.53;5046977;28;20079;-66
2022/08/16 00:08:24;;;;;;;9.82;7.07;;;;;;;18.64;74.07;100474.16;5046920;28;20055;-65
2022/08/16 00:10:50;;;;;;;7.95;6.32;;;;;;;18.56;73.60;100475.91;5039356;28;20055;-64
2022/08/16 00:13:15;;;;;;;10.52;7.28;;;;;;;18.49;74.93;100474.00;5034521;28;20053;-66
2022/08/16 00:15:45;;;;;;;9.55;7.40;;;;;;;18.44;74.86;100470.91;5033094;28;20045;-67
2022/08/16 00:18:13;;;;;;;10.73;6.75;;;;;;;18.39;74.66;100479.66;5045960;28;20629;-66
2022/08/16 00:20:40;;;;;;;11.50;7.22;;;;;;;18.38;74.53;100483.47;5026974;28;20338;-65
2022/08/16 00:23:06;;;;;;;7.32;6.20;;;;;;;18.35;74.25;100478.28;5043473;28;20041;-66
2022/08/16 00:25:32;;;;;;;9.90;7.07;;;;;;;18.31;74.89;100476.91;5047285;28;20044;-67
2022/08/16 00:27:58;;;;;;;12.80;7.00;;;;;;;18.24;74.51;100478.63;5047962;28;20107;-65
2022/08/16 00:30:24;;;;;;;9.73;7.28;;;;;;;18.20;74.67;100478.09;5033827;28;20041;-65
2022/08/16 00:32:54;;;;;;;7.75;6.47;;;;;;;18.18;74.50;100488.41;5027091;28;20358;-65
2022/08/16 00:35:24;;;;;;;9.88;6.25;;;;;;;18.18;73.77;100491.16;5040883;28;20036;-64
2022/08/16 00:37:49;;;;;;;10.23;7.07;;;;;;;18.14;74.62;100484.28;5026641;28;20523;-65
2022/08/16 00:40:20;;;;;;;9.48;7.20;;;;;;;18.13;74.56;100490.81;5026876;28;20053;-66
2022/08/16 00:42:46;;;;;;;10.25;7.55;;;;;;;18.08;75.30;100493.22;5045667;28;20060;-65
2022/08/16 00:45:20;;;;;;;10.45;8.20;;;;;;;18.03;75.74;100490.97;5030364;28;20565;-67
2022/08/16 00:47:46;;;;;;;9.50;7.68;;;;;;;17.94;74.65;100494.72;5027005;28;20041;-65
2022/08/16 00:50:12;;;;;;;13.50;7.75;;;;;;;17.92;74.96;100501.44;5026941;28;20389;-68
2022/08/16 00:52:39;;;;;;;10.13;8.10;;;;;;;17.90;74.94;100497.97;5036725;28;20036;-65
2022/08/16 00:55:05;;;;;;;15.15;8.10;;;;;;;17.89;75.13;100496.25;5044139;28;20139;-65
2022/08/16 00:57:30;;;;;;;15.13;8.55;;;;;;;17.87;75.08;100495.56;5038507;28;20017;-66
2022/08/16 00:59:56;;;;;;;10.50;8.50;;;;;;;17.83;75.44;100497.78;5025985;28;20088;-68
2022/08/16 01:02:21;;;;;;;11.20;8.90;;;;;;;17.78;76.01;100498.28;5041713;28;20488;-66
2022/08/16 01:04:47;;;;;;;9.50;7.93;;;;;;;17.75;75.38;100495.00;5040849;28;20052;-65
2022/08/16 01:07:12;;;;;;;10.57;8.27;;;;;;;17.67;76.06;100503.19;5025562;28;20080;-65
2022/08/16 01:09:38;;;;;;;11.68;8.27;;;;;;;17.65;75.52;100497.84;5024975;28;20060;-65
2022/08/16 01:12:07;;;;;;;9.70;7.88;;;;;;;17.64;75.48;100496.13;5026345;28;20041;-66
2022/08/16 01:14:42;;;;;;;9.40;8.40;;;;;;;17.57;76.54;100495.91;5025531;28;20029;-65
2022/08/16 01:17:08;;;;;;;12.35;8.40;;;;;;;17.54;76.33;100504.53;5024848;28;20041;-68
2022/08/16 01:19:43;;;;;;;11.80;7.28;;;;;;;17.53;75.63;100501.91;5025349;28;20060;-65
2022/08/16 01:22:20;;;;;;;9.52;7.68;;;;;;;17.51;75.34;100492.97;5030704;28;20033;-65
2022/08/16 01:24:50;;;;;;;11.10;7.65;;;;;;;17.49;75.63;100495.06;5044548;28;20392;-65
2022/08/16 01:27:48;;;;;;;16.27;7.65;;;;;;;17.46;75.24;100498.97;5026282;28;20042;-65
2022/08/16 01:30:17;;;;;;;13.63;8.02;;;;;;;17.40;76.04;100494.13;5026275;28;20449;-64
2022/08/16 01:32:42;;;;;;;16.02;8.23;;;;;;;17.38;76.13;100495.31;5044284;28;20219;-66
2022/08/16 01:35:17;;;;;;;15.07;8.02;;;;;;;17.36;75.46;100500.13;5039477;28;20083;-65
2022/08/16 01:37:47;;;;;;;12.00;7.65;;;;;;;17.30;75.86;100491.50;5024293;28;20485;-65
2022/08/16 01:40:15;;;;;;;11.48;7.82;;;;;;;17.27;76.07;100489.06;5024213;28;20041;-65
2022/08/16 01:42:41;;;;;;;10.95;8.27;;;;;;;17.25;76.29;100479.25;5036119;28;20163;-65
2022/08/16 01:45:06;;;;;;;11.18;8.55;;;;;;;17.23;76.20;100492.31;5039108;28;20087;-67
2022/08/16 01:47:36;;;;;;;11.30;7.88;;;;;;;17.21;76.09;100492.50;5024172;28;20499;-68
2022/08/16 01:50:03;;;;;;;10.38;7.75;;;;;;;17.19;76.40;100493.66;5026180;28;20053;-70
2022/08/16 01:52:29;;;;;;;11.38;7.53;;;;;;;17.17;75.79;100499.34;5034883;28;20041;-66
2022/08/16 01:55:01;;;;;;;12.45;7.88;;;;;;;17.11;77.16;100491.72;5044817;28;20048;-65
2022/08/16 01:57:27;;;;;;;12.98;7.75;;;;;;;17.09;75.83;100497.38;5044828;28;20037;-66
2022/08/16 01:59:53;;;;;;;10.55;8.93;;;;;;;17.06;76.48;100491.34;5042310;28;20021;-65
2022/08/16 02:02:18;;;;;;;10.23;8.38;;;;;;;17.04;76.18;100496.16;5045464;28;20041;-66
2022/08/16 02:04:43;;;;;;;12.13;7.93;;;;;;;17.02;76.29;100501.81;5039126;28;20431;-66
2022/08/16 02:07:11;;;;;;;9.40;8.25;;;;;;;17.01;76.05;100496.47;5007137;28;20044;-66
2022/08/16 02:09:39;;;;;;;9.65;7.75;;;;;;;17.00;76.40;100489.25;5025730;28;20520;-65
2022/08/16 02:12:07;;;;;;;12.60;8.75;;;;;;;16.94;77.00;100496.25;5024037;28;20155;-65
2022/08/16 02:14:34;;;;;;;11.23;8.35;;;;;;;16.93;77.19;100496.44;5024661;28;20404;-66
2022/08/16 02:17:03;;;;;;;10.60;9.00;;;;;;;16.92;77.88;100492.78;5024380;28;20448;-65
2022/08/16 02:19:31;;;;;;;12.35;8.77;;;;;;;16.90;77.57;100492.09;5025459;28;20025;-65
2022/08/16 02:21:58;;;;;;;11.75;8.85;;;;;;;16.87;78.20;100489.66;5008963;28;20456;-65
2022/08/16 02:24:24;;;;;;;11.18;9.05;;;;;;;16.88;77.76;100493.28;5025377;28;20037;-65
2022/08/16 02:26:50;;;;;;;11.20;9.45;;;;;;;16.90;76.98;100500.34;5025533;28;20099;-65
2022/08/16 02:29:19;;;;;;;10.30;8.52;;;;;;;16.86;77.61;100493.44;5024050;28;20064;-65
2022/08/16 02:31:48;;;;;;;11.40;8.48;;;;;;;16.86;77.46;100489.84;5040772;28;20021;-66
2022/08/16 02:34:14;;;;;;;12.85;8.88;;;;;;;16.83;77.85;100488.25;5039884;28;20039;-65
2022/08/16 02:36:41;;;;;;;14.00;9.30;;;;;;;16.83;77.74;100496.50;5039074;28;20044;-69
2022/08/16 02:39:09;;;;;;;13.30;9.70;;;;;;;16.80;77.71;100494.97;5040016;28;20096;-65
2022/08/16 02:41:37;;;;;;;15.75;10.35;;;;;;;16.79;78.25;100490.50;5025334;28;20046;-66
2022/08/16 02:44:04;;;;;;;15.20;11.80;;;;;;;16.78;79.38;100491.47;5039438;28;20037;-65
2022/08/16 02:46:31;;;;;;;17.00;10.95;;;;;;;16.79;79.86;100492.38;5041046;28;20064;-66
2022/08/16 02:48:58;;;;;;;20.95;12.45;;;;;;;16.78;80.53;100487.88;5039933;28;20021;-65
2022/08/16 02:51:24;;;;;;;14.95;11.30;;;;;;;16.77;81.35;100487.03;5025082;28;20218;-65
2022/08/16 02:53:50;;;;;;;15.88;10.32;;;;;;;16.78;80.28;100490.63;5043315;28;20108;-65
2022/08/16 02:56:17;;;;;;;16.30;11.23;;;;;;;16.77;79.69;100483.41;5039656;28;20025;-65
2022/08/16 02:58:45;;;;;;;18.48;12.52;;;;;;;16.78;81.10;100483.25;5027384;28;20641;-67
2022/08/16 03:01:14;;;;;;;16.60;13.10;;;;;;;16.76;80.52;100484.44;5027410;28;20029;-65
2022/08/16 03:03:39;;;;;;;16.50;12.38;;;;;;;16.77;80.77;100487.03;5027369;28;20038;-67
2022/08/16 03:06:05;;;;;;;17.77;12.32;;;;;;;16.75;81.89;100478.09;5028019;28;20068;-69
2022/08/16 03:08:32;;;;;;;17.77;13.13;;;;;;;16.72;80.62;100483.03;5028255;28;20046;-69
2022/08/16 03:10:57;;;;;;;18.85;12.88;;;;;;;16.73;82.11;100479.25;5028113;28;20700;-65
2022/08/16 03:13:23;;;;;;;19.27;13.90;;;;;;;16.74;82.33;100476.38;5027731;28;20028;-67
2022/08/16 03:15:49;;;;;;;18.10;12.95;;;;;;;16.75;80.79;100486.34;5038809;28;20033;-65
2022/08/16 03:18:15;;;;;;;19.40;12.80;;;;;;;16.76;81.13;100485.31;5043657;28;20059;-66
2022/08/16 03:20:40;;;;;;;23.42;14.20;;;;;;;16.74;82.35;100476.38;5043346;28;20033;-66
2022/08/16 03:23:07;;;;;;;19.63;13.80;;;;;;;16.75;81.38;100472.59;5041513;28;20387;-67
2022/08/16 03:25:33;;;;;;;23.05;13.95;;;;;;;16.77;82.35;100477.91;5047182;28;20032;-67
2022/08/16 03:28:01;;;;;;;20.48;13.15;;;;;;;16.76;80.98;100481.69;5047591;28;20043;-69
2022/08/16 03:30:29;;;;;;;17.75;12.65;;;;;;;16.75;80.44;100474.47;5045060;28;20506;-66
2022/08/16 03:32:57;;;;;;;15.57;12.20;;;;;;;16.76;80.17;100477.06;5028091;28;20036;-66
2022/08/16 03:35:29;;;;;;;18.45;13.07;;;;;;;16.77;80.29;100481.53;5028702;28;20037;-68
2022/08/16 03:37:57;;;;;;;16.40;13.07;;;;;;;16.77;80.11;100484.28;5027664;28;20642;-65
2022/08/16 03:40:27;;;;;;;17.88;13.30;;;;;;;16.75;81.22;100483.59;5028877;28;20621;-65
2022/08/16 03:42:53;;;;;;;18.63;13.25;;;;;;;16.71;81.46;100482.16;5028259;28;20057;-65
2022/08/16 03:45:19;;;;;;;21.92;14.63;;;;;;;16.73;81.55;100487.50;5028328;28;20029;-65
2022/08/16 03:47:46;;;;;;;21.15;13.68;;;;;;;16.69;81.37;100486.06;5026603;28;20133;-66
2022/08/16 03:50:13;;;;;;;21.05;14.30;;;;;;;16.67;83.10;100488.13;5027085;28;20060;-67
2022/08/16 03:52:41;;;;;;;24.25;14.02;;;;;;;16.68;81.72;100498.06;5037351;28;20032;-66
2022/08/16 03:55:08;;;;;;;18.58;13.88;;;;;;;16.67;82.84;100501.84;5046671;28;20032;-65
2022/08/16 03:57:34;;;;;;;26.08;15.73;;;;;;;16.67;83.34;100505.47;5042758;28;20520;-66
2022/08/16 04:00:00;;;;;;;19.92;14.80;;;;;;;16.69;82.64;100505.28;5027566;28;20154;-66
2022/08/16 04:02:27;;;;;;;21.95;15.18;;;;;;;16.71;83.04;100512.34;5027102;28;20511;-66
2022/08/16 04:04:52;;;;;;;22.77;16.50;;;;;;;16.71;83.82;100509.63;5036487;28;20021;-65
2022/08/16 04:07:19;;;;;;;25.02;16.30;;;;;;;16.73;83.86;100515.84;5025684;28;20160;-66
2022/08/16 04:09:45;;;;;;;21.25;15.63;;;;;;;16.73;82.61;100521.31;5025696;28;20033;-65
2022/08/16 04:12:11;;;;;;;21.05;14.68;;;;;;;16.71;83.37;100520.59;5026193;28;20044;-65
2022/08/16 04:14:37;;;;;;;20.42;14.90;;;;;;;16.69;82.51;100519.88;5026354;28;20017;-65
2022/08/16 04:17:04;;;;;;;20.42;13.48;;;;;;;16.68;82.21;100518.16;5025940;28;20564;-68
2022/08/16 04:19:34;;;;;;;19.10;13.25;;;;;;;16.72;80.96;100516.00;5026525;28;20047;-65
2022/08/16 04:21:59;;;;;;;23.52;13.90;;;;;;;16.73;81.11;100520.47;5030965;28;20035;-65
2022/08/16 04:24:27;;;;;;;18.85;14.35;;;;;;;16.73;82.33;100520.47;5046171;28;20132;-66
2022/08/16 04:26:52;;;;;;;26.10;16.67;;;;;;;16.68;82.78;100518.16;5041549;28;20441;-66
2022/08/16 04:29:18;;;;;;;25.85;17.15;;;;;;;16.68;83.51;100528.28;5026959;28;20055;-65
2022/08/16 04:31:46;;;;;;;28.48;16.30;;;;;;;16.68;82.50;100531.91;5025684;28;20116;-65
2022/08/16 04:34:13;;;;;;;23.08;14.88;;;;;;;16.67;82.56;100530.19;5025555;28;20026;-65
2022/08/16 04:36:39;;;;;;;20.67;14.23;;;;;;;16.69;82.59;100527.25;5025119;28;20362;-65
2022/08/16 04:39:04;;;;;;;24.92;14.95;;;;;;;16.72;80.99;100521.50;5026938;28;20060;-66
2022/08/16 04:41:30;;;;;;;21.70;14.73;;;;;;;16.73;81.54;100518.56;5026070;28;20439;-66
2022/08/16 04:43:55;;;;;;;20.75;14.55;;;;;;;16.76;81.01;100522.91;5025396;28;20045;-67
2022/08/16 04:46:21;;;;;;;19.90;13.40;;;;;;;16.77;80.82;100530.97;5041362;28;20045;-66
2022/08/16 04:48:46;;;;;;;24.75;16.42;;;;;;;16.80;82.27;100529.81;5025626;28;20094;-68
2022/08/16 04:51:12;;;;;;;21.33;14.65;;;;;;;16.78;81.04;100521.72;5008575;28;20021;-65
2022/08/16 04:53:42;;;;;;;21.88;16.02;;;;;;;16.78;80.96;100527.19;5043853;28;20083;-66
2022/08/16 04:56:08;;;;;;;26.58;16.50;;;;;;;16.79;81.54;100528.94;5040037;28;20040;-66
2022/08/16 04:58:33;;;;;;;22.77;16.90;;;;;;;16.81;81.77;100524.16;5044468;28;20028;-65
2022/08/16 05:01:00;;;;;;;26.42;18.63;;;;;;;16.79;82.40;100531.69;5041693;28;20361;-65
2022/08/16 05:03:27;;;;;;;24.52;15.63;;;;;;;16.81;80.45;100526.91;5041870;28;20524;-66
2022/08/16 05:05:53;;;;;;;22.58;17.50;;;;;;;16.83;81.13;100535.84;5034725;28;20136;-65
2022/08/16 05:08:20;;;;;;;28.02;18.67;;;;;;;16.86;81.59;100531.06;5043335;28;20755;-66
2022/08/16 05:10:53;;;;;;;26.20;17.20;;;;;;;16.88;80.56;100532.63;5044103;28;20035;-66
2022/08/16 05:13:19;;;;;;;27.73;17.85;;;;;;;16.90;81.39;100530.56;5043552;28;20060;-66
2022/08/16 05:15:46;;;;;;;28.75;18.73;;;;;;;16.91;81.68;100540.53;5041918;28;20075;-66
2022/08/16 05:18:14;;;;;;;29.90;17.83;;;;;;;16.92;80.52;100544.16;5044981;28;20037;-66
2022/08/16 05:20:45;;;;;;;32.75;17.65;;;;;;;16.94;81.10;100545.72;5023851;28;20496;-66
2022/08/16 05:23:12;;;;;;;27.33;17.48;;;;;;;16.93;81.44;100552.25;5039928;28;20094;-66
2022/08/16 05:25:38;;;;;;;27.67;18.35;;;;;;;16.91;83.00;100548.78;5028702;28;20044;-66
2022/08/16 05:28:04;;;;;;;29.95;17.92;;;;;;;16.92;82.38;100558.75;5046457;28;20039;-66
2022/08/16 05:30:30;;;;;;;24.55;18.25;;;;;;;16.97;83.63;100558.25;5040141;28;20400;-66
2022/08/16 05:32:56;;;;;;;26.48;18.95;;;;;;;17.00;83.60;100560.72;5040616;28;20033;-66
2022/08/16 05:35:21;;;;;;;24.67;17.40;;;;;;;17.06;83.39;100554.56;5026772;28;20033;-66
2022/08/16 05:38:09;;;;;;;28.45;19.70;;;;;;;17.12;83.74;100556.69;5042027;28;20021;-66
2022/08/16 05:40:35;;;;;;;24.92;19.05;;;;;;;17.18;81.98;100561.53;5044214;28;20041;-66
2022/08/16 05:43:02;;;;;;;30.55;20.38;;;;;;;17.21;83.88;100572.22;5044772;28;20033;-70
2022/08/16 05:45:28;;;;;;;26.27;19.30;;;;;;;17.24;82.59;100569.13;5040083;28;20040;-66
2022/08/16 05:47:57;;;;;;;27.98;21.30;;;;;;;17.31;84.07;100569.38;5029693;28;20048;-66
2022/08/16 05:50:23;;;;;;;35.13;20.90;;;;;;;17.34;83.42;100580.03;5040432;28;20030;-66
2022/08/16 05:52:54;;;;;;;37.53;22.55;;;;;;;17.39;83.84;100574.03;5037339;28;20067;-67
2022/08/16 05:55:19;;;;;;;30.10;20.95;;;;;;;17.42;83.05;100574.56;5044937;28;20064;-66
2022/08/16 05:57:46;;;;;;;26.23;19.63;;;;;;;17.48;81.89;100578.56;5043873;28;20026;-66
2022/08/16 06:00:13;;;;;;;28.75;21.52;;;;;;;17.52;82.31;100577.22;5033089;28;20033;-67
2022/08/16 06:02:40;;;;;;;31.67;21.02;;;;;;;17.57;82.70;100577.59;5026653;28;20045;-66
2022/08/16 06:05:18;;;;;;;31.27;21.02;;;;;;;17.62;82.19;100575.22;5039644;28;20166;-67
2022/08/16 06:07:44;;;;;;;33.17;22.70;;;;;;;17.65;82.23;100577.66;5040049;28;20410;-65
2022/08/16 06:10:19;;;;;;;34.70;22.50;;;;;;;17.68;82.08;100584.72;5040736;28;20037;-66
2022/08/16 06:12:45;;;;;;;35.72;21.98;;;;;;;17.74;82.23;100586.84;5030499;28;20373;-67
2022/08/16 06:15:17;;;;;;;27.38;19.70;;;;;;;17.75;82.00;100583.91;5024903;28;20089;-66
2022/08/16 06:17:44;;;;;;;29.92;20.02;;;;;;;17.79;81.04;100585.31;5043352;28;20183;-66
2022/08/16 06:20:19;;;;;;;31.48;21.45;;;;;;;17.84;81.84;100584.81;5043205;28;20074;-66
2022/08/16 06:22:44;;;;;;;31.38;21.02;;;;;;;17.90;81.11;100580.53;5044180;28;20048;-66
2022/08/16 06:25:11;;;;;;;36.60;21.52;;;;;;;17.95;80.79;100589.16;5044254;28;20021;-68
2022/08/16 06:27:38;;;;;;;32.58;20.00;;;;;;;18.00;80.31;100598.69;5036762;28;20368;-66
2022/08/16 06:30:06;;;;;;;31.08;21.65;;;;;;;18.08;80.98;100603.34;5033814;28;20048;-66
2022/08/16 06:32:32;;;;;;;29.88;21.73;;;;;;;18.14;79.80;100608.19;5041022;28;20025;-67
2022/08/16 06:34:58;;;;;;;30.60;20.38;;;;;;;18.19;79.61;100604.94;5046440;28;20029;-65
2022/08/16 06:37:24;;;;;;;28.95;20.30;;;;;;;18.24;80.20;100600.66;5046578;28;20341;-66
2022/08/16 06:39:49;;;;;;;36.88;21.60;;;;;;;18.31;79.52;100604.44;5048371;28;20043;-66
2022/08/16 06:42:21;;;;;;;34.08;22.88;;;;;;;18.35;80.28;100603.09;5043871;28;20044;-66
2022/08/16 06:45:00;;;;;;;34.47;22.85;;;;;;;18.43;79.85;100602.25;5035300;28;20068;-67
2022/08/16 06:47:44;;;;;;;31.70;20.77;;;;;;;18.50;78.70;100607.94;5048341;28;20103;-66
2022/08/16 06:50:10;;;;;;;32.78;21.45;;;;;;;18.54;78.34;100603.81;5046461;28;20068;-67
2022/08/16 06:52:42;;;;;;;26.00;19.58;;;;;;;18.61;78.61;100607.66;5045336;28;20025;-68
2022/08/16 06:55:10;;;;;;;28.88;20.17;;;;;;;18.69;78.24;100604.91;5047757;28;20021;-67
2022/08/16 06:57:38;;;;;;;30.70;22.50;;;;;;;18.72;78.17;100612.00;5047713;28;20036;-66
2022/08/16 07:00:11;;;;;;;29.65;20.77;;;;;;;18.77;77.75;100606.84;5036258;28;20581;-66
2022/08/16 07:02:40;;;;;;;32.28;22.92;;;;;;;18.84;77.67;100605.13;5027777;28;20116;-66
2022/08/16 07:05:07;;;;;;;34.15;22.75;;;;;;;18.92;78.60;100612.53;5042807;28;20033;-65
2022/08/16 07:07:33;;;;;;;26.98;20.17;;;;;;;18.99;77.91;100619.97;5045992;28;20041;-66
2022/08/16 07:09:59;;;;;;;29.35;22.60;;;;;;;19.03;77.66;100617.72;5048079;28;20036;-66
2022/08/16 07:12:25;;;;;;;32.90;22.75;;;;;;;19.08;77.34;100615.31;5028708;28;20100;-67
2022/08/16 07:14:52;;;;;;;27.63;22.17;;;;;;;19.12;78.20;100613.94;5044843;28;20029;-67
2022/08/16 07:17:21;;;;;;;34.03;21.77;;;;;;;19.18;77.90;100621.50;5047316;28;20033;-65
2022/08/16 07:19:51;;;;;;;41.38;22.58;;;;;;;19.26;76.61;100616.00;5046467;28;20036;-66
2022/08/16 07:22:17;;;;;;;31.10;22.63;;;;;;;19.31;76.37;100621.00;5053620;28;20037;-66
2022/08/16 07:24:44;;;;;;;39.08;24.13;;;;;;;19.33;77.63;100627.19;5066940;28;20039;-66
2022/08/16 07:27:10;;;;;;;28.52;22.02;;;;;;;19.38;76.93;100630.28;5046178;28;20112;-68
2022/08/16 07:29:36;;;;;;;35.85;22.85;;;;;;;19.48;76.36;100635.63;5044117;28;20029;-66
2022/08/16 07:32:02;;;;;;;30.20;22.58;;;;;;;19.56;76.91;100630.09;5043979;28;20041;-71
2022/08/16 07:34:31;;;;;;;29.73;21.58;;;;;;;19.65;75.82;100637.38;5028038;28;20066;-67
2022/08/16 07:36:58;;;;;;;28.00;22.40;;;;;;;19.69;76.57;100633.22;5026528;28;20492;-65
2022/08/16 07:39:26;;;;;;;33.50;22.27;;;;;;;19.77;75.84;100638.72;5035746;28;20090;-66
2022/08/16 07:41:51;;;;;;;31.55;22.20;;;;;;;19.85;75.40;100644.22;5028399;28;20435;-67
2022/08/16 07:44:17;;;;;;;27.38;21.05;;;;;;;19.95;75.21;100641.25;5042211;28;20033;-66
2022/08/16 07:46:46;;;;;;;30.05;21.65;;;;;;;20.02;75.20;100645.03;5028496;28;20034;-67
2022/08/16 07:49:17;;;;;;;33.13;22.20;;;;;;;20.14;75.12;100645.50;5027592;28;20037;-67
2022/08/16 07:51:43;;;;;;;26.67;20.08;;;;;;;20.23;74.70;100644.44;5029409;28;20169;-67
2022/08/16 07:54:09;;;;;;;28.65;21.75;;;;;;;20.35;74.22;100643.00;5046218;28;20421;-67
2022/08/16 07:56:37;;;;;;;28.08;20.10;;;;;;;20.64;73.53;100647.88;5045937;28;20033;-65
2022/08/16 07:59:04;;;;;;;28.50;20.90;;;;;;;20.99;71.98;100648.38;5043155;28;20656;-69
2022/08/16 08:01:30;;;;;;;29.15;21.08;;;;;;;21.35;70.99;100650.53;5027749;28;20763;-65
2022/08/16 08:03:58;;;;;;;27.33;17.90;;;;;;;21.47;69.78;100645.41;5028456;28;20083;-65
2022/08/16 08:06:32;;;;;;;22.38;19.02;;;;;;;21.56;67.27;100649.84;5042913;28;20021;-68
2022/08/16 08:09:06;;;;;;;23.42;17.55;;;;;;;21.78;68.16;100646.16;5042623;28;20132;-66
2022/08/16 08:11:31;;;;;;;21.42;15.82;;;;;;;22.14;66.61;100648.19;5028838;28;20552;-65
2022/08/16 08:14:00;;;;;;;19.65;13.32;;;;;;;22.64;68.63;100658.47;5043152;28;20411;-67
2022/08/16 08:16:26;;;;;;;20.63;14.13;;;;;;;22.98;64.49;100659.72;5041677;28;20037;-65
2022/08/16 08:18:53;;;;;;;20.55;15.13;;;;;;;23.41;62.57;100657.84;5027840;28;20452;-66
2022/08/16 08:21:20;;;;;;;16.55;13.65;;;;;;;23.78;62.27;100663.28;5026056;28;20060;-66
2022/08/16 08:23:47;;;;;;;20.92;13.10;;;;;;;24.18;61.89;100667.19;5029603;28;20091;-66
2022/08/16 08:26:13;;;;;;;19.77;14.02;;;;;;;24.55;59.40;100663.16;5026393;28;20124;-66
2022/08/16 08:28:40;;;;;;;17.00;12.70;;;;;;;24.86;59.60;100659.84;5026017;28;20037;-66
2022/08/16 08:31:06;;;;;;;18.17;13.00;;;;;;;25.32;56.39;100658.25;5026205;28;20021;-67
2022/08/16 08:33:37;;;;;;;15.13;12.10;;;;;;;25.45;56.01;100658.25;5026436;28;20022;-65
2022/08/16 08:36:06;;;;;;;17.25;12.73;;;;;;;25.49;55.09;100662.34;5042052;28;20507;-66
2022/08/16 08:38:34;;;;;;;19.10;13.17;;;;;;;25.72;55.40;100659.13;5025387;28;20026;-66
2022/08/16 08:41:03;;;;;;;16.55;11.25;;;;;;;26.22;54.52;100662.31;5041082;28;20052;-65
2022/08/16 08:43:29;;;;;;;13.80;10.73;;;;;;;26.52;54.47;100654.28;5026323;28;20037;-67
2022/08/16 08:45:57;;;;;;;12.32;10.25;;;;;;;26.54;52.22;100660.53;5026245;28;20516;-66
2022/08/16 08:48:24;;;;;;;15.00;9.90;;;;;;;26.59;51.97;100657.94;5025593;28;20048;-69
2022/08/16 08:50:49;;;;;;;13.15;10.93;;;;;;;26.60;51.35;100658.78;5041339;28;20026;-67
2022/08/16 08:53:15;;;;;;;14.40;9.13;;;;;;;27.07;52.39;100662.19;5041038;28;20025;-68
2022/08/16 08:55:42;;;;;;;13.98;8.90;;;;;;;27.46;48.98;100666.66;5045410;28;20111;-66
2022/08/16 08:58:08;;;;;;;13.52;9.82;;;;;;;27.46;47.06;100673.09;5044517;28;20111;-66
2022/08/16 09:00:52;;;;;;;13.25;10.40;;;;;;;27.27;48.21;100665.72;5039797;28;20037;-66
2022/08/16 09:03:19;;;;;;;9.48;8.43;;;;;;;27.48;49.53;100672.91;5025343;28;20043;-66
2022/08/16 09:05:45;;;;;;;10.95;8.15;;;;;;;27.71;49.22;100670.38;5040053;28;20120;-66
2022/08/16 09:08:10;;;;;;;13.35;9.20;;;;;;;27.63;47.87;100683.75;5024852;28;20037;-67
2022/08/16 09:10:47;;;;;;;15.13;8.63;;;;;;;27.81;48.02;100672.66;5025436;28;20040;-65
2022/08/16 09:13:13;;;;;;;15.93;9.60;;;;;;;27.98;46.99;100672.94;5025548;28;20037;-68
2022/08/16 09:15:43;;;;;;;10.32;9.00;;;;;;;28.07;46.12;100677.16;5039720;28;20052;-66
2022/08/16 09:18:09;;;;;;;12.63;8.68;;;;;;;28.14;46.23;100682.66;5025056;28;20040;-65
2022/08/16 09:20:35;;;;;;;9.50;7.53;;;;;;;28.10;44.33;100679.47;5038388;28;20048;-67
2022/08/16 09:23:02;;;;;;;10.68;7.85;;;;;;;28.11;45.42;100680.31;5037799;28;20174;-65
2022/08/16 09:25:33;;;;;;;12.13;7.28;;;;;;;28.20;45.70;100682.59;5025288;28;20058;-65
2022/08/16 09:28:00;;;;;;;9.48;7.80;;;;;;;28.25;45.52;100676.31;5025649;28;20404;-66
2022/08/16 09:30:28;;;;;;;10.55;6.85;;;;;;;28.41;44.96;100689.72;5025939;28;20029;-65
2022/08/16 09:32:53;;;;;;;10.57;7.05;;;;;;;28.47;43.99;100685.13;5044484;28;20040;-66
2022/08/16 09:35:21;;;;;;;9.27;6.53;;;;;;;28.90;44.31;100687.81;5030355;28;20116;-66
2022/08/16 09:37:46;;;;;;;7.70;5.97;;;;;;;29.30;42.95;100689.25;5025941;28;20051;-65
2022/08/16 09:40:12;;;;;;;9.30;6.53;;;;;;;29.57;40.55;100681.31;5028276;28;20452;-66
2022/08/16 09:42:39;;;;;;;9.50;6.45;;;;;;;29.66;41.88;100689.16;5045858;28;20076;-65
2022/08/16 09:45:07;;;;;;;11.32;6.82;;;;;;;29.74;41.14;100685.13;5035465;28;20507;-66
2022/08/16 09:47:38;;;;;;;6.28;5.63;;;;;;;29.64;41.36;100685.72;5025774;28;20067;-67
2022/08/16 09:50:03;;;;;;;8.40;6.70;;;;;;;29.38;38.38;100683.31;5026243;28;20037;-66
2022/08/16 09:52:29;;;;;;;14.10;6.28;;;;;;;29.50;40.35;100678.56;5034973;28;20436;-65
2022/08/16 09:54:54;;;;;;;7.43;5.65;;;;;;;29.97;40.92;100679.53;5045947;28;20115;-66
2022/08/16 09:57:20;;;;;;;7.88;6.30;;;;;;;30.19;40.67;100685.41;5038806;28;20017;-66
2022/08/16 09:59:45;;;;;;;8.55;5.75;;;;;;;30.25;37.66;100683.59;5039944;28;20073;-66
2022/08/16 10:02:10;;;;;;;9.60;5.55;;;;;;;30.40;37.54;100680.25;5026332;28;20025;-66
2022/08/16 10:04:36;;;;;;;9.25;4.88;;;;;;;30.60;39.14;100693.94;5025723;28;20033;-67
2022/08/16 10:07:03;;;;;;;10.40;5.88;;;;;;;30.89;37.46;100681.66;5024541;28;20044;-66
2022/08/16 10:09:28;;;;;;;5.82;5.22;;;;;;;31.09;38.17;100688.78;5025702;28;20108;-67
2022/08/16 10:14:39;;;;;;;11.05;5.40;;;;;;;31.10;35.90;100684.88;5026655;28;20029;-67
2022/08/16 10:17:05;;;;;;;12.98;6.07;;;;;;;30.88;37.20;100682.78;5025526;28;20072;-66
2022/08/16 10:19:31;;;;;;;8.60;5.38;;;;;;;30.92;36.27;100686.78;5025894;28;20438;-66
2022/08/16 10:21:57;;;;;;;16.77;5.82;;;;;;;31.11;37.18;100683.78;5029508;28;20618;-67
2022/08/16 10:24:22;;;;;;;9.98;5.45;;;;;;;31.13;37.16;100685.22;5027240;28;20029;-67
2022/08/16 10:26:48;;;;;;;6.72;5.32;;;;;;;31.30;36.27;100681.66;5025648;28;20103;-66
2022/08/16 10:29:15;;;;;;;10.45;5.30;;;;;;;31.55;35.76;100686.88;5025749;28;20033;-68
2022/08/16 10:31:41;;;;;;;12.20;5.50;;;;;;;31.49;33.59;100685.94;5026023;28;20586;-66
2022/08/16 10:34:06;;;;;;;7.18;5.13;;;;;;;31.70;34.96;100690.81;5025679;28;20048;-65
2022/08/16 10:36:32;;;;;;;12.40;4.80;;;;;;;31.94;35.86;100685.03;5025186;28;20388;-67
2022/08/16 10:38:57;;;;;;;10.27;5.10;;;;;;;31.85;33.35;100700.66;5024895;28;20038;-66
2022/08/16 10:41:23;;;;;;;10.68;5.20;;;;;;;31.43;34.87;100689.75;5025404;28;20053;-66
2022/08/16 10:43:48;;;;;;;7.43;5.50;;;;;;;31.19;36.34;100697.41;5025306;28;20473;-69
2022/08/16 10:46:16;;;;;;;7.30;5.13;;;;;;;31.55;35.96;100698.97;5026236;28;20741;-65
2022/08/16 10:48:43;;;;;;;15.13;5.10;;;;;;;32.01;35.61;100699.81;5025801;28;20400;-66
2022/08/16 10:51:09;;;;;;;16.25;4.68;;;;;;;32.09;35.02;100696.56;5025440;28;20048;-66
2022/08/16 10:53:35;;;;;;;11.57;5.40;;;;;;;32.15;33.92;100694.69;5031764;28;20037;-66
2022/08/16 10:56:03;;;;;;;11.63;5.07;;;;;;;32.35;33.04;100703.41;5025424;28;20072;-66
2022/08/16 10:58:29;;;;;;;6.85;4.80;;;;;;;32.63;34.85;100695.97;5025512;28;20080;-66
2022/08/16 11:00:54;;;;;;;12.93;5.28;;;;;;;32.81;33.09;100700.44;5025699;28;20041;-66
2022/08/16 11:03:20;;;;;;;11.43;4.80;;;;;;;32.84;31.09;100703.59;5025276;28;20034;-66
2022/08/16 11:05:46;;;;;;;8.50;4.70;;;;;;;32.86;30.69;100708.94;5024432;28;20044;-68
2022/08/16 11:08:11;;;;;;;14.93;5.03;;;;;;;33.18;30.99;100709.94;5025120;28;20040;-63
2022/08/16 11:10:40;;;;;;;10.68;4.93;;;;;;;33.08;30.32;100717.44;5025716;28;20469;-64
2022/08/16 11:13:07;;;;;;;7.53;4.50;;;;;;;33.13;32.24;100715.53;5024566;28;20551;-63
2022/08/16 11:15:34;;;;;;;12.65;4.90;;;;;;;33.17;32.46;100719.50;5023644;28;20029;-64
2022/08/16 11:17:59;;;;;;;8.90;4.38;;;;;;;33.10;30.43;100707.56;5024652;28;20451;-66